Terminal Aerodrome Forecast
Issued by NWS

Home | Current Version | Previous Version | Text Only | Print | Product List | Glossary On
Versions: 1 2 3 4 5 6 7 8 9 10 11 12 13 14 15
000
FTUS44 KMAF 310500
TAFFST
TAF
KFST 310520Z 3106/0106 13010KT P6SM -RA OVC015
      TEMPO 3111/3115 5SM -RA BR OVC010
     FM311900 18007KT P6SM BKN035=

USA.gov is the U.S. government's official web portal to all federal, state and local government web resources and services.